createdAt,value
2019-02-15T00:00:39.979Z,4.70
2019-02-15T00:03:09.783Z,4.60
2019-02-15T00:05:39.319Z,4.60
2019-02-15T00:08:21.131Z,4.60
2019-02-15T00:10:50.531Z,4.60
2019-02-15T00:13:19.957Z,4.50
2019-02-15T00:15:49.328Z,4.50
2019-02-15T00:18:56.323Z,4.50
2019-02-15T00:21:28.790Z,4.50
2019-02-15T00:23:58.289Z,4.50
2019-02-15T00:26:27.697Z,4.50
2019-02-15T00:28:57.234Z,4.50
2019-02-15T00:31:26.635Z,4.50
2019-02-15T00:33:56.161Z,4.60
2019-02-15T00:36:25.587Z,4.60
2019-02-15T00:38:54.976Z,4.60
2019-02-15T00:41:24.370Z,4.60
2019-02-15T00:43:53.786Z,4.50
2019-02-15T00:46:45.359Z,4.50
2019-02-15T00:49:32.604Z,4.50
2019-02-15T00:52:12.169Z,4.40
2019-02-15T00:55:00.674Z,4.40
2019-02-15T00:57:52.308Z,4.30
2019-02-15T01:00:33.938Z,4.30
2019-02-15T01:03:32.191Z,4.20
2019-02-15T01:06:11.077Z,4.20
2019-02-15T01:08:59.598Z,4.20
2019-02-15T01:11:32.538Z,4.20
2019-02-15T01:14:01.943Z,4.20
2019-02-15T01:16:31.414Z,4.10
2019-02-15T01:19:00.818Z,4.10
2019-02-15T01:21:30.310Z,4.00
2019-02-15T01:23:59.716Z,4.00
2019-02-15T01:26:36.131Z,4.00
2019-02-15T01:29:18.027Z,4.00
2019-02-15T01:32:02.394Z,4.00
2019-02-15T01:34:57.399Z,3.90
2019-02-15T01:37:44.593Z,3.90
2019-02-15T01:40:33.339Z,3.90
2019-02-15T01:43:16.191Z,3.90
2019-02-15T01:45:52.285Z,3.80
2019-02-15T01:48:21.712Z,3.80
2019-02-15T01:50:51.153Z,3.80
2019-02-15T01:53:20.559Z,3.80
2019-02-15T01:55:49.973Z,3.80
2019-02-15T01:58:19.379Z,3.80
2019-02-15T02:00:48.779Z,3.70
2019-02-15T02:03:18.177Z,3.70
2019-02-15T02:05:47.579Z,3.70
2019-02-15T02:08:22.701Z,3.70
2019-02-15T02:10:52.137Z,3.60
2019-02-15T02:13:21.529Z,3.70
2019-02-15T02:15:51.117Z,3.60
2019-02-15T02:18:20.533Z,3.60
2019-02-15T02:20:49.952Z,3.60
2019-02-15T02:23:19.427Z,3.60
2019-02-15T02:25:48.846Z,3.50
2019-02-15T02:28:18.260Z,3.50
2019-02-15T02:30:47.717Z,3.50
2019-02-15T02:33:17.096Z,3.50
2019-02-15T02:35:46.586Z,3.40
2019-02-15T02:38:15.984Z,3.40
2019-02-15T02:40:45.461Z,3.40
2019-02-15T02:43:14.935Z,3.40
2019-02-15T02:45:44.334Z,3.40
2019-02-15T02:48:13.800Z,3.40
2019-02-15T02:50:43.210Z,3.30
2019-02-15T02:53:12.623Z,3.30
2019-02-15T02:55:42.064Z,3.30
2019-02-15T02:58:11.757Z,3.30
2019-02-15T03:00:41.494Z,3.30
2019-02-15T03:03:11.019Z,3.30
2019-02-15T03:05:40.451Z,3.20
2019-02-15T03:08:09.840Z,3.20
2019-02-15T03:10:39.254Z,3.20
2019-02-15T03:13:08.670Z,3.20
2019-02-15T03:15:38.086Z,3.20
2019-02-15T03:18:07.481Z,3.20
2019-02-15T03:20:36.879Z,3.20
2019-02-15T03:23:06.324Z,3.10
2019-02-15T03:25:35.715Z,3.10
2019-02-15T03:28:05.187Z,3.10
2019-02-15T03:30:34.592Z,3.10
2019-02-15T03:33:04.001Z,3.20
2019-02-15T03:35:33.559Z,3.20
2019-02-15T03:38:24.762Z,3.30
2019-02-15T03:40:57.217Z,3.30
2019-02-15T03:43:26.627Z,3.30
2019-02-15T03:45:56.102Z,3.30
2019-02-15T03:48:25.502Z,3.20
2019-02-15T03:50:54.902Z,3.20
2019-02-15T03:53:24.399Z,3.10
2019-02-15T03:55:53.946Z,3.10
2019-02-15T03:58:23.443Z,3.00
2019-02-15T04:00:53.209Z,3.00
2019-02-15T04:03:22.665Z,3.10
2019-02-15T04:05:52.063Z,3.00
2019-02-15T04:08:21.477Z,3.00
2019-02-15T04:10:50.930Z,3.00
2019-02-15T04:13:20.809Z,3.10
2019-02-15T04:15:50.266Z,3.10
2019-02-15T04:18:19.674Z,3.20
2019-02-15T04:20:49.152Z,3.20
2019-02-15T04:23:18.580Z,3.10
2019-02-15T04:25:48.013Z,3.10
2019-02-15T04:28:17.703Z,3.10
2019-02-15T04:30:47.102Z,3.20
2019-02-15T04:33:16.522Z,3.20
2019-02-15T04:35:45.988Z,3.20
2019-02-15T04:38:15.582Z,3.20
2019-02-15T04:40:45.082Z,3.20
2019-02-15T04:43:14.576Z,3.10
2019-02-15T04:45:43.980Z,3.00
2019-02-15T04:48:13.408Z,3.10
2019-02-15T04:50:42.807Z,3.00
2019-02-15T04:53:12.224Z,3.00
2019-02-15T04:55:41.638Z,3.00
2019-02-15T04:58:11.038Z,3.00
2019-02-15T05:00:40.413Z,3.00
2019-02-15T05:03:09.875Z,2.90
2019-02-15T05:05:39.262Z,2.80
2019-02-15T05:08:08.658Z,2.70
2019-02-15T05:10:38.053Z,2.80
2019-02-15T05:13:07.486Z,2.80
2019-02-15T05:15:36.931Z,2.80
2019-02-15T05:18:06.358Z,2.90
2019-02-15T05:20:35.810Z,2.80
2019-02-15T05:23:05.260Z,2.80
2019-02-15T05:25:34.756Z,2.80
2019-02-15T05:28:04.268Z,2.80
2019-02-15T05:30:33.670Z,2.80
2019-02-15T05:33:03.062Z,2.80
2019-02-15T05:35:32.465Z,2.70
2019-02-15T05:38:01.846Z,2.60
2019-02-15T05:40:31.453Z,2.50
2019-02-15T05:43:00.941Z,2.50
2019-02-15T05:45:30.351Z,2.60
2019-02-15T05:48:00.041Z,2.60
2019-02-15T05:50:29.533Z,2.60
2019-02-15T05:52:58.926Z,2.60
2019-02-15T05:55:28.361Z,2.60
2019-02-15T05:57:57.760Z,2.50
2019-02-15T06:00:36.692Z,2.50
2019-02-15T06:02:58.268Z,2.60
2019-02-15T06:05:27.683Z,2.50
2019-02-15T06:07:57.292Z,2.50
2019-02-15T06:10:26.726Z,2.60
2019-02-15T06:12:56.200Z,2.50
2019-02-15T06:15:25.695Z,2.50
2019-02-15T06:17:55.102Z,2.40
2019-02-15T06:20:25.806Z,2.50
2019-02-15T06:22:55.194Z,2.50
2019-02-15T06:25:24.625Z,2.40
2019-02-15T06:27:54.036Z,2.30
2019-02-15T06:30:23.598Z,2.30
2019-02-15T06:32:53.062Z,2.20
2019-02-15T06:35:22.614Z,2.20
2019-02-15T06:37:52.186Z,2.20
2019-02-15T06:40:21.587Z,2.10
2019-02-15T06:42:51.015Z,2.20
2019-02-15T06:45:24.636Z,2.20
2019-02-15T06:47:51.603Z,2.20
2019-02-15T06:50:21.038Z,2.20
2019-02-15T06:52:50.495Z,2.20
2019-02-15T06:55:19.909Z,2.20
2019-02-15T06:57:49.463Z,2.30
2019-02-15T07:00:36.767Z,2.30
2019-02-15T07:03:19.603Z,2.40
2019-02-15T07:05:49.049Z,2.40
2019-02-15T07:08:18.541Z,2.30
2019-02-15T07:10:48.059Z,2.30
2019-02-15T07:13:17.501Z,2.30
2019-02-15T07:15:46.987Z,2.30
2019-02-15T07:18:16.475Z,2.20
2019-02-15T07:20:46.203Z,2.30
2019-02-15T07:23:15.725Z,2.30
2019-02-15T07:25:45.297Z,2.30
2019-02-15T07:28:14.730Z,2.30
2019-02-15T07:30:44.149Z,2.40
2019-02-15T07:33:13.695Z,2.40
2019-02-15T07:35:43.116Z,2.40
2019-02-15T07:38:12.541Z,2.40
2019-02-15T07:40:41.967Z,2.40
2019-02-15T07:43:11.369Z,2.50
2019-02-15T07:45:42.769Z,2.50
2019-02-15T07:48:11.940Z,2.50
2019-02-15T07:50:41.408Z,2.60
2019-02-15T07:53:10.818Z,2.70
2019-02-15T07:55:40.210Z,2.70
2019-02-15T07:58:09.652Z,2.70
2019-02-15T08:00:39.048Z,2.70
2019-02-15T08:03:08.455Z,2.70
2019-02-15T08:05:37.939Z,2.70
2019-02-15T08:08:07.351Z,2.70
2019-02-15T08:10:36.759Z,2.70
2019-02-15T08:13:06.234Z,2.80
2019-02-15T08:15:36.490Z,2.80
2019-02-15T08:18:06.015Z,2.80
2019-02-15T08:20:35.406Z,2.80
2019-02-15T08:23:04.860Z,2.80
2019-02-15T08:25:34.300Z,2.90
2019-02-15T08:28:03.713Z,2.90
2019-02-15T08:30:33.502Z,2.90
2019-02-15T08:33:02.993Z,3.00
2019-02-15T08:35:32.429Z,3.00
2019-02-15T08:38:01.848Z,3.00
2019-02-15T08:40:31.349Z,3.10
2019-02-15T08:43:00.817Z,3.20
2019-02-15T08:45:30.455Z,3.20
2019-02-15T08:47:59.946Z,3.30
2019-02-15T08:50:29.421Z,3.50
2019-02-15T08:52:58.949Z,3.60
2019-02-15T08:55:28.391Z,3.70
2019-02-15T08:57:57.829Z,3.80
2019-02-15T09:00:27.215Z,3.90
2019-02-15T09:02:56.933Z,4.00
2019-02-15T09:05:26.370Z,4.20
2019-02-15T09:07:55.859Z,4.30
2019-02-15T09:10:25.251Z,4.40
2019-02-15T09:12:54.741Z,4.50
2019-02-15T09:15:24.287Z,4.60
2019-02-15T09:17:53.735Z,4.60
2019-02-15T09:20:23.189Z,4.70
2019-02-15T09:22:52.678Z,4.70
2019-02-15T09:25:22.146Z,4.80
2019-02-15T09:28:13.902Z,4.80
2019-02-15T09:30:45.275Z,4.80
2019-02-15T09:33:14.816Z,4.70
2019-02-15T09:35:44.612Z,4.70
2019-02-15T09:38:14.050Z,4.70
2019-02-15T09:40:43.454Z,4.70
2019-02-15T09:43:12.969Z,4.70
2019-02-15T09:45:42.506Z,4.70
2019-02-15T09:48:11.901Z,4.70
2019-02-15T09:50:41.968Z,4.70
2019-02-15T09:53:11.360Z,4.80
2019-02-15T09:55:40.903Z,4.90
2019-02-15T09:58:10.378Z,5.00
2019-02-15T10:00:39.852Z,5.10
2019-02-15T10:03:09.343Z,5.30
2019-02-15T10:05:38.789Z,5.30
2019-02-15T10:08:08.224Z,5.50
2019-02-15T10:10:37.633Z,5.50
2019-02-15T10:13:07.077Z,5.60
2019-02-15T10:15:36.575Z,5.80
2019-02-15T10:18:06.107Z,5.90
2019-02-15T10:20:35.586Z,6.00
2019-02-15T10:23:05.030Z,6.00
2019-02-15T10:25:34.781Z,6.10
2019-02-15T10:28:04.348Z,6.20
2019-02-15T10:30:34.017Z,6.40
2019-02-15T10:33:03.507Z,6.40
2019-02-15T10:35:33.132Z,6.40
2019-02-15T10:38:02.549Z,6.60
2019-02-15T10:40:32.017Z,6.70
2019-02-15T10:43:01.413Z,6.90
2019-02-15T10:45:30.877Z,7.10
2019-02-15T10:48:00.401Z,7.30
2019-02-15T10:50:29.818Z,7.50
2019-02-15T10:52:59.273Z,7.90
2019-02-15T10:55:28.679Z,8.00
2019-02-15T10:57:58.415Z,8.30
2019-02-15T11:00:28.278Z,8.30
2019-02-15T11:02:57.690Z,8.50
2019-02-15T11:05:27.146Z,8.70
2019-02-15T11:07:56.710Z,9.00
2019-02-15T11:10:26.119Z,9.20
2019-02-15T11:12:55.602Z,9.30
2019-02-15T11:15:25.140Z,9.70
2019-02-15T11:17:54.566Z,9.90
2019-02-15T11:20:24.410Z,10.20
2019-02-15T11:22:53.824Z,10.50
2019-02-15T11:25:23.282Z,10.60
2019-02-15T11:27:52.903Z,11.00
2019-02-15T11:30:22.536Z,11.20
2019-02-15T11:32:52.002Z,11.50
2019-02-15T11:35:21.454Z,11.80
2019-02-15T11:37:50.933Z,12.00
2019-02-15T11:40:20.351Z,12.20
2019-02-15T11:42:49.802Z,12.50
2019-02-15T11:45:19.261Z,12.60
2019-02-15T11:47:48.789Z,12.70
2019-02-15T11:50:18.287Z,12.40
2019-02-15T11:52:47.757Z,11.80
2019-02-15T11:55:17.241Z,11.20
2019-02-15T11:57:46.651Z,10.90
2019-02-15T12:00:22.507Z,10.60
2019-02-15T12:02:50.483Z,10.30
2019-02-15T12:05:19.907Z,9.90
2019-02-15T12:07:49.493Z,9.70
2019-02-15T12:10:19.071Z,9.60
2019-02-15T12:12:48.490Z,9.60
2019-02-15T12:15:17.996Z,9.40
2019-02-15T12:17:47.475Z,9.40
2019-02-15T12:20:16.953Z,9.30
2019-02-15T12:22:46.434Z,9.30
2019-02-15T12:25:15.838Z,9.30
2019-02-15T12:27:45.249Z,9.40
2019-02-15T12:30:14.995Z,9.40
2019-02-15T12:32:44.406Z,9.40
2019-02-15T12:35:13.997Z,9.40
2019-02-15T12:37:43.433Z,9.40
2019-02-15T12:40:13.561Z,9.40
2019-02-15T12:42:43.002Z,9.40
2019-02-15T12:45:12.763Z,9.40
2019-02-15T12:47:42.270Z,9.40
2019-02-15T12:50:13.182Z,9.40
2019-02-15T12:52:42.589Z,9.50
2019-02-15T12:55:12.089Z,9.50
2019-02-15T12:57:47.694Z,9.50
2019-02-15T13:00:17.098Z,9.50
2019-02-15T13:02:46.521Z,9.60
2019-02-15T13:05:15.994Z,9.50
2019-02-15T13:07:45.414Z,9.50
2019-02-15T13:10:18.136Z,9.60
2019-02-15T13:12:47.603Z,9.60
2019-02-15T13:15:16.998Z,9.70
2019-02-15T13:17:46.469Z,9.70
2019-02-15T13:20:15.905Z,9.70
2019-02-15T13:22:45.522Z,9.70
2019-02-15T13:25:15.009Z,9.60
2019-02-15T13:27:44.559Z,9.70
2019-02-15T13:30:14.084Z,9.60
2019-02-15T13:32:43.607Z,9.60
2019-02-15T13:35:13.727Z,9.70
2019-02-15T13:37:43.169Z,9.70
2019-02-15T13:40:12.711Z,9.60
2019-02-15T13:42:42.261Z,9.70
2019-02-15T13:45:15.467Z,9.70
2019-02-15T13:47:44.902Z,9.70
2019-02-15T13:50:14.401Z,9.70
2019-02-15T13:52:43.897Z,9.70
2019-02-15T13:55:13.473Z,9.80
2019-02-15T13:57:43.153Z,9.80
2019-02-15T14:00:12.922Z,9.80
2019-02-15T14:02:42.399Z,9.70
2019-02-15T14:05:12.167Z,9.70
2019-02-15T14:07:41.727Z,9.70
2019-02-15T14:10:11.237Z,9.70
2019-02-15T14:12:40.765Z,9.70
2019-02-15T14:15:10.374Z,9.60
2019-02-15T14:17:45.333Z,9.60
2019-02-15T14:20:11.416Z,9.60
2019-02-15T14:22:40.821Z,9.60
2019-02-15T14:25:10.372Z,9.60
2019-02-15T14:27:39.908Z,9.60
2019-02-15T14:30:10.191Z,9.60
2019-02-15T14:32:39.692Z,9.60
2019-02-15T14:35:09.518Z,9.70
2019-02-15T14:37:39.082Z,9.60
2019-02-15T14:40:09.298Z,9.60
2019-02-15T14:42:38.874Z,9.60
2019-02-15T14:45:09.430Z,9.60
2019-02-15T14:47:38.894Z,9.50
2019-02-15T14:50:08.602Z,9.50
2019-02-15T14:52:38.085Z,9.60
2019-02-15T14:55:07.732Z,9.60
2019-02-15T14:57:37.267Z,9.50
2019-02-15T15:00:08.750Z,9.50
2019-02-15T15:02:38.164Z,9.50
2019-02-15T15:05:08.069Z,9.60
2019-02-15T15:07:37.497Z,9.60
2019-02-15T15:10:08.319Z,9.70
2019-02-15T15:12:37.803Z,9.60
2019-02-15T15:15:08.487Z,9.70
2019-02-15T15:17:37.980Z,9.60
2019-02-15T15:20:09.241Z,9.60
2019-02-15T15:22:38.759Z,9.60
2019-02-15T15:25:09.424Z,9.60
2019-02-15T15:27:39.082Z,9.60
2019-02-15T15:30:10.039Z,9.60
2019-02-15T15:32:39.707Z,9.70
2019-02-15T15:35:09.272Z,9.70
2019-02-15T15:37:38.687Z,9.70
2019-02-15T15:40:09.487Z,9.70
2019-02-15T15:42:39.012Z,9.70
2019-02-15T15:45:09.384Z,9.70
2019-02-15T15:47:38.832Z,9.70
2019-02-15T15:50:09.207Z,9.70
2019-02-15T15:52:38.764Z,9.60
2019-02-15T15:55:09.167Z,9.50
2019-02-15T15:57:38.712Z,9.50
2019-02-15T16:00:10.004Z,9.40
2019-02-15T16:02:39.434Z,9.30
2019-02-15T16:05:09.545Z,9.20
2019-02-15T16:07:39.012Z,9.20
2019-02-15T16:10:09.868Z,9.20
2019-02-15T16:12:39.353Z,9.10
2019-02-15T16:15:09.717Z,9.10
2019-02-15T16:17:39.130Z,9.00
2019-02-15T16:20:09.522Z,9.00
2019-02-15T16:22:38.969Z,9.00
2019-02-15T16:25:08.699Z,9.00
2019-02-15T16:27:38.208Z,8.90
2019-02-15T16:30:09.388Z,8.90
2019-02-15T16:32:38.874Z,8.90
2019-02-15T16:35:08.616Z,8.90
2019-02-15T16:37:38.034Z,8.80
2019-02-15T16:40:09.030Z,8.80
2019-02-15T16:42:38.418Z,8.80
2019-02-15T16:45:09.650Z,8.80
2019-02-15T16:47:39.174Z,8.70
2019-02-15T16:50:09.006Z,8.70
2019-02-15T16:52:38.430Z,8.60
2019-02-15T16:55:12.888Z,8.60
2019-02-15T16:57:39.690Z,8.60
2019-02-15T17:00:09.758Z,8.60
2019-02-15T17:02:39.268Z,8.50
2019-02-15T17:05:08.755Z,8.50
2019-02-15T17:07:38.316Z,8.50
2019-02-15T17:10:08.144Z,8.40
2019-02-15T17:12:37.642Z,8.40
2019-02-15T17:15:08.059Z,8.30
2019-02-15T17:17:37.687Z,8.30
2019-02-15T17:20:07.607Z,8.30
2019-02-15T17:22:37.127Z,8.20
2019-02-15T17:25:08.032Z,8.20
2019-02-15T17:27:37.533Z,8.10
2019-02-15T17:30:07.741Z,8.10
2019-02-15T17:32:37.186Z,8.10
2019-02-15T17:35:07.715Z,8.00
2019-02-15T17:37:37.213Z,8.00
2019-02-15T17:40:08.045Z,8.00
2019-02-15T17:42:37.487Z,7.90
2019-02-15T17:45:07.718Z,7.90
2019-02-15T17:47:37.116Z,7.90
2019-02-15T17:50:07.178Z,7.90
2019-02-15T17:52:36.596Z,7.80
2019-02-15T17:55:06.111Z,7.80
2019-02-15T17:57:35.601Z,7.80
2019-02-15T18:00:06.204Z,7.70
2019-02-15T18:02:35.638Z,7.70
2019-02-15T18:05:05.498Z,7.70
2019-02-15T18:07:35.069Z,7.70
2019-02-15T18:10:04.677Z,7.60
2019-02-15T18:12:34.134Z,7.70
2019-02-15T18:15:03.704Z,7.70
2019-02-15T18:17:33.090Z,7.70
2019-02-15T18:20:02.574Z,7.60
2019-02-15T18:22:31.990Z,7.60
2019-02-15T18:25:01.407Z,7.50
2019-02-15T18:27:30.881Z,7.50
2019-02-15T18:30:00.411Z,7.50
2019-02-15T18:32:30.027Z,7.50
2019-02-15T18:34:59.427Z,7.50
2019-02-15T18:37:28.836Z,7.40
2019-02-15T18:39:58.262Z,7.40
2019-02-15T18:42:27.868Z,7.30
2019-02-15T18:44:57.284Z,7.30
2019-02-15T18:47:26.791Z,7.30
2019-02-15T18:49:56.211Z,7.30
2019-02-15T18:52:25.710Z,7.30
2019-02-15T18:54:55.160Z,7.20
2019-02-15T18:57:24.736Z,7.20
2019-02-15T18:59:54.215Z,7.20
2019-02-15T19:02:23.719Z,7.20
2019-02-15T19:04:53.327Z,7.20
2019-02-15T19:07:22.833Z,7.10
2019-02-15T19:09:52.273Z,7.10
2019-02-15T19:12:21.781Z,7.10
2019-02-15T19:14:51.242Z,7.10
2019-02-15T19:17:20.700Z,7.00
2019-02-15T19:19:50.164Z,7.10
2019-02-15T19:22:19.619Z,7.10
2019-02-15T19:24:49.225Z,7.00
2019-02-15T19:27:18.627Z,7.00
2019-02-15T19:29:48.394Z,7.00
2019-02-15T19:32:18.047Z,6.90
2019-02-15T19:34:47.732Z,6.80
2019-02-15T19:37:17.320Z,6.80
2019-02-15T19:39:46.827Z,6.70
2019-02-15T19:42:19.545Z,6.70
2019-02-15T19:44:49.026Z,6.70
2019-02-15T19:47:18.558Z,6.70
2019-02-15T19:49:48.034Z,6.60
2019-02-15T19:52:17.448Z,6.60
2019-02-15T19:54:47.082Z,6.60
2019-02-15T19:57:16.563Z,6.50
2019-02-15T19:59:53.479Z,6.50
2019-02-15T20:02:17.200Z,6.40
2019-02-15T20:04:46.731Z,6.40
2019-02-15T20:07:16.193Z,6.40
2019-02-15T20:09:45.627Z,6.40
2019-02-15T20:12:15.046Z,6.30
2019-02-15T20:14:44.587Z,6.30
2019-02-15T20:17:14.040Z,6.30
2019-02-15T20:19:48.791Z,6.20
2019-02-15T20:22:14.662Z,6.20
2019-02-15T20:24:44.101Z,6.20
2019-02-15T20:27:13.522Z,6.20
2019-02-15T20:29:49.203Z,6.20
2019-02-15T20:32:14.032Z,6.10
2019-02-15T20:34:45.341Z,6.10
2019-02-15T20:37:14.706Z,6.10
2019-02-15T20:39:44.226Z,6.00
2019-02-15T20:42:13.937Z,6.00
2019-02-15T20:44:43.415Z,5.90
2019-02-15T20:47:12.861Z,5.90
2019-02-15T20:49:42.306Z,5.90
2019-02-15T20:52:11.734Z,5.80
2019-02-15T20:54:41.211Z,5.80
2019-02-15T20:57:10.659Z,5.80
2019-02-15T20:59:40.415Z,5.80
2019-02-15T21:02:09.911Z,5.80
2019-02-15T21:04:39.569Z,5.70
2019-02-15T21:07:09.073Z,5.70
2019-02-15T21:09:38.474Z,5.70
2019-02-15T21:12:08.008Z,5.70
2019-02-15T21:14:37.963Z,5.60
2019-02-15T21:17:07.235Z,5.60
2019-02-15T21:19:36.665Z,5.60
2019-02-15T21:22:06.135Z,5.50
2019-02-15T21:24:35.588Z,5.60
2019-02-15T21:27:05.002Z,5.60
2019-02-15T21:29:34.421Z,5.60
2019-02-15T21:32:03.858Z,5.60
2019-02-15T21:34:33.543Z,5.60
2019-02-15T21:37:03.062Z,5.60
2019-02-15T21:39:32.472Z,5.60
2019-02-15T21:42:01.908Z,5.60
2019-02-15T21:44:31.332Z,5.50
2019-02-15T21:47:00.775Z,5.50
2019-02-15T21:49:30.218Z,5.50
2019-02-15T21:51:59.790Z,5.50
2019-02-15T21:54:29.222Z,5.40
2019-02-15T21:56:58.770Z,5.50
2019-02-15T21:59:30.165Z,5.40
2019-02-15T22:01:59.577Z,5.40
2019-02-15T22:04:28.982Z,5.30
2019-02-15T22:06:58.454Z,5.30
2019-02-15T22:09:27.899Z,5.30
2019-02-15T22:11:57.328Z,5.30
2019-02-15T22:14:26.764Z,5.30
2019-02-15T22:16:56.169Z,5.20
2019-02-15T22:19:25.598Z,5.20
2019-02-15T22:21:55.010Z,5.20
2019-02-15T22:24:24.459Z,5.20
2019-02-15T22:26:53.857Z,5.20
2019-02-15T22:29:23.322Z,5.10
2019-02-15T22:31:52.757Z,5.20
2019-02-15T22:34:22.189Z,5.20
2019-02-15T22:36:51.607Z,5.10
2019-02-15T22:39:21.073Z,5.10
2019-02-15T22:41:50.983Z,5.00
2019-02-15T22:44:20.399Z,5.00
2019-02-15T22:46:49.809Z,5.00
2019-02-15T22:49:19.231Z,5.00
2019-02-15T22:51:48.649Z,4.90
2019-02-15T22:54:18.165Z,4.90
2019-02-15T22:56:47.580Z,4.90
2019-02-15T22:59:16.969Z,4.90
2019-02-15T23:01:46.504Z,4.80
2019-02-15T23:04:16.030Z,4.80
2019-02-15T23:06:45.446Z,4.80
2019-02-15T23:09:25.455Z,4.70
2019-02-15T23:11:54.873Z,4.70
2019-02-15T23:14:24.288Z,4.70
2019-02-15T23:16:53.820Z,4.70
2019-02-15T23:19:23.230Z,4.60
2019-02-15T23:21:52.649Z,4.60
2019-02-15T23:24:22.058Z,4.60
2019-02-15T23:26:51.466Z,4.60
2019-02-15T23:29:20.898Z,4.50
2019-02-15T23:31:51.138Z,4.60
2019-02-15T23:34:20.617Z,4.60
2019-02-15T23:36:50.010Z,4.50
2019-02-15T23:39:19.450Z,4.50
2019-02-15T23:41:48.855Z,4.50
2019-02-15T23:44:18.262Z,4.40
2019-02-15T23:46:47.650Z,4.40
2019-02-15T23:49:17.082Z,4.40
2019-02-15T23:51:46.521Z,4.40
2019-02-15T23:54:15.986Z,4.40
2019-02-15T23:56:45.566Z,4.40
2019-02-15T23:59:15.017Z,4.30
